createdAt,value
2018-11-26T00:00:49.549Z,100895.52
2018-11-26T00:01:50.184Z,100895.23
2018-11-26T00:02:50.950Z,100894.41
2018-11-26T00:03:51.823Z,100894.13
2018-11-26T00:04:52.453Z,100893.59
2018-11-26T00:05:53.120Z,100893.27
2018-11-26T00:06:52.772Z,100892.98
2018-11-26T00:07:54.408Z,100892.23
2018-11-26T00:08:54.231Z,100891.31
2018-11-26T00:09:55.175Z,100890.78
2018-11-26T00:10:56.291Z,100890.02
2018-11-26T00:11:56.779Z,100889.86
2018-11-26T00:12:57.259Z,100889.41
2018-11-26T00:13:57.626Z,100889.25
2018-11-26T00:14:58.617Z,100888.72
2018-11-26T00:15:58.481Z,100887.96
2018-11-26T00:17:00.031Z,100887.20
2018-11-26T00:18:00.615Z,100886.92
2018-11-26T00:19:01.082Z,100886.52
2018-11-26T00:20:00.781Z,100885.92
2018-11-26T00:21:02.370Z,100885.34
2018-11-26T00:22:02.799Z,100884.89
2018-11-26T00:23:03.307Z,100884.22
2018-11-26T00:24:03.224Z,100883.80
2018-11-26T00:24:12.308Z,100880.28
2018-11-26T00:25:12.799Z,100879.87
2018-11-26T00:26:13.306Z,100880.03
2018-11-26T00:27:13.864Z,100879.87
2018-11-26T00:28:14.399Z,100879.87
2018-11-26T00:29:14.971Z,100879.36
2018-11-26T00:30:15.509Z,100879.03
2018-11-26T00:31:16.008Z,100878.64
2018-11-26T00:32:15.590Z,100878.39
2018-11-26T00:33:17.110Z,100878.55
2018-11-26T00:34:16.855Z,100878.39
2018-11-26T00:35:18.451Z,100877.72
2018-11-26T00:36:18.176Z,100877.37
2018-11-26T00:37:18.615Z,100877.30
2018-11-26T00:38:20.215Z,100877.13
2018-11-26T00:39:20.696Z,100877.30
2018-11-26T00:40:21.172Z,100877.05
2018-11-26T00:41:21.753Z,100876.79
2018-11-26T00:42:22.399Z,100876.70
2018-11-26T00:43:22.859Z,100876.48
2018-11-26T00:44:23.674Z,100876.31
2018-11-26T00:45:24.196Z,100876.77
2018-11-26T00:46:24.789Z,100876.25
2018-11-26T00:47:25.437Z,100875.78
2018-11-26T00:48:26.296Z,100875.70
2018-11-26T00:49:26.934Z,100875.27
2018-11-26T00:50:27.805Z,100875.44
2018-11-26T00:51:28.305Z,100875.77
2018-11-26T00:52:27.924Z,100875.86
2018-11-26T00:53:28.441Z,100875.86
2018-11-26T00:54:30.076Z,100876.02
2018-11-26T00:55:30.499Z,100875.95
2018-11-26T00:56:30.954Z,100876.20
2018-11-26T00:57:31.416Z,100875.86
2018-11-26T00:58:32.005Z,100876.12
2018-11-26T00:59:32.413Z,100876.00
2018-11-26T01:00:32.831Z,100876.67
2018-11-26T01:01:33.265Z,100876.81
2018-11-26T01:02:33.739Z,100876.81
2018-11-26T01:03:34.219Z,100877.48
2018-11-26T01:04:34.626Z,100877.37
2018-11-26T01:05:35.070Z,100877.97
2018-11-26T01:06:35.402Z,100877.88
2018-11-26T01:07:35.444Z,100878.19
2018-11-26T01:08:36.023Z,100878.53
2018-11-26T01:09:36.441Z,100878.11
2018-11-26T01:10:36.783Z,100878.42
2018-11-26T01:11:37.248Z,100878.92
2018-11-26T01:11:45.682Z,100891.77
2018-11-26T01:12:47.191Z,100891.05
2018-11-26T01:13:47.673Z,100890.30
2018-11-26T01:14:48.496Z,100889.53
2018-11-26T01:15:49.090Z,100888.98
2018-11-26T01:16:49.592Z,100888.47
2018-11-26T01:17:50.037Z,100887.72
2018-11-26T01:18:50.701Z,100887.55
2018-11-26T01:19:51.171Z,100887.05
2018-11-26T01:20:51.855Z,100886.38
2018-11-26T01:21:52.335Z,100885.95
2018-11-26T01:22:52.879Z,100884.78
2018-11-26T01:23:53.535Z,100884.45
2018-11-26T01:24:54.037Z,100884.20
2018-11-26T01:25:54.022Z,100883.94
2018-11-26T01:26:54.496Z,100883.52
2018-11-26T01:27:54.926Z,100882.71
2018-11-26T01:28:55.435Z,100882.88
2018-11-26T01:29:55.907Z,100882.13
2018-11-26T01:30:56.371Z,100881.63
2018-11-26T01:31:57.013Z,100881.12
2018-11-26T01:32:57.915Z,100880.78
2018-11-26T01:33:58.547Z,100880.11
2018-11-26T01:34:59.054Z,100879.44
2018-11-26T01:35:59.558Z,100879.19
2018-11-26T01:37:00.325Z,100878.52
2018-11-26T01:38:00.931Z,100878.18
2018-11-26T01:39:01.409Z,100878.02
2018-11-26T01:40:01.979Z,100877.77
2018-11-26T01:41:02.647Z,100877.48
2018-11-26T01:42:03.178Z,100877.83
2018-11-26T01:43:03.638Z,100877.29
2018-11-26T01:44:04.127Z,100877.13
2018-11-26T01:45:04.580Z,100876.67
2018-11-26T01:46:05.124Z,100877.27
2018-11-26T01:47:05.583Z,100877.27
2018-11-26T01:48:06.095Z,100877.02
2018-11-26T01:49:06.786Z,100877.52
2018-11-26T01:50:07.360Z,100877.85
2018-11-26T01:51:07.857Z,100877.63
2018-11-26T01:52:07.291Z,100877.80
2018-11-26T01:53:09.196Z,100877.97
2018-11-26T01:54:09.673Z,100878.52
2018-11-26T01:55:10.356Z,100878.19
2018-11-26T01:55:18.774Z,100882.78
2018-11-26T01:56:20.307Z,100873.30
2018-11-26T01:57:20.798Z,100873.55
2018-11-26T01:58:21.193Z,100873.47
2018-11-26T01:59:21.617Z,100873.55
2018-11-26T02:00:22.211Z,100874.36
2018-11-26T02:01:23.021Z,100875.12
2018-11-26T02:02:23.588Z,100875.92
2018-11-26T02:03:24.024Z,100876.35
2018-11-26T02:04:24.881Z,100876.60
2018-11-26T02:05:25.742Z,100877.66
2018-11-26T02:06:26.111Z,100878.00
2018-11-26T02:07:26.559Z,100878.59
2018-11-26T02:08:27.096Z,100879.34
2018-11-26T02:09:27.676Z,100879.67
2018-11-26T02:10:28.029Z,100880.27
2018-11-26T02:11:28.607Z,100880.83
2018-11-26T02:12:29.118Z,100881.75
2018-11-26T02:13:29.662Z,100881.75
2018-11-26T02:14:30.233Z,100882.67
2018-11-26T02:15:30.814Z,100883.09
2018-11-26T02:16:31.287Z,100883.66
2018-11-26T02:17:31.661Z,100884.24
2018-11-26T02:18:32.036Z,100884.83
2018-11-26T02:19:32.536Z,100885.59
2018-11-26T02:20:32.960Z,100885.80
2018-11-26T02:21:33.172Z,100886.31
2018-11-26T02:22:33.633Z,100886.53
2018-11-26T02:23:34.242Z,100886.45
2018-11-26T02:24:34.766Z,100886.20
2018-11-26T02:25:35.059Z,100886.52
2018-11-26T02:26:35.442Z,100886.27
2018-11-26T02:27:35.892Z,100886.17
2018-11-26T02:28:36.728Z,100886.09
2018-11-26T02:29:37.234Z,100885.98
2018-11-26T02:30:37.686Z,100885.56
2018-11-26T02:31:38.435Z,100885.56
2018-11-26T02:32:38.649Z,100885.38
2018-11-26T02:33:39.252Z,100885.09
2018-11-26T02:34:39.683Z,100884.09
2018-11-26T02:35:40.160Z,100883.39
2018-11-26T02:36:40.241Z,100882.63
2018-11-26T02:37:40.759Z,100882.44
2018-11-26T02:38:41.259Z,100882.27
2018-11-26T02:39:41.577Z,100882.08
2018-11-26T02:40:42.070Z,100881.41
2018-11-26T02:40:50.131Z,100876.55
2018-11-26T02:41:51.709Z,100875.97
2018-11-26T02:42:52.186Z,100875.62
2018-11-26T02:43:53.044Z,100875.21
2018-11-26T02:44:53.791Z,100874.82
2018-11-26T02:45:54.385Z,100874.48
2018-11-26T02:46:54.873Z,100874.15
2018-11-26T02:47:55.516Z,100874.06
2018-11-26T02:48:56.337Z,100874.23
2018-11-26T02:49:56.875Z,100873.98
2018-11-26T02:50:57.848Z,100873.73
2018-11-26T02:51:58.323Z,100873.56
2018-11-26T02:52:58.673Z,100873.17
2018-11-26T02:53:59.176Z,100873.34
2018-11-26T02:54:59.687Z,100873.00
2018-11-26T02:56:00.376Z,100873.05
2018-11-26T02:57:00.830Z,100873.05
2018-11-26T02:58:01.277Z,100873.22
2018-11-26T02:59:01.752Z,100873.22
2018-11-26T03:00:02.114Z,100873.56
2018-11-26T03:01:02.509Z,100873.67
2018-11-26T03:02:02.961Z,100874.68
2018-11-26T03:03:03.336Z,100875.09
2018-11-26T03:04:03.733Z,100875.18
2018-11-26T03:05:04.214Z,100874.95
2018-11-26T03:06:04.719Z,100875.13
2018-11-26T03:07:05.209Z,100874.70
2018-11-26T03:08:05.608Z,100874.53
2018-11-26T03:09:06.193Z,100874.28
2018-11-26T03:10:06.558Z,100874.12
2018-11-26T03:11:06.909Z,100873.53
2018-11-26T03:12:07.420Z,100873.61
2018-11-26T03:13:07.842Z,100873.02
2018-11-26T03:14:08.182Z,100873.02
2018-11-26T03:15:08.627Z,100872.86
2018-11-26T03:16:08.946Z,100872.86
2018-11-26T03:17:09.409Z,100872.69
2018-11-26T03:18:09.042Z,100872.52
2018-11-26T03:19:10.108Z,100872.02
2018-11-26T03:20:10.369Z,100872.02
2018-11-26T03:21:10.703Z,100871.94
2018-11-26T03:22:11.047Z,100871.27
2018-11-26T03:23:11.623Z,100870.84
2018-11-26T03:24:12.135Z,100869.84
2018-11-26T03:25:12.684Z,100869.92
2018-11-26T03:26:13.155Z,100869.42
2018-11-26T03:26:21.579Z,100867.55
2018-11-26T03:27:23.048Z,100866.45
2018-11-26T03:28:23.486Z,100866.62
2018-11-26T03:29:24.034Z,100866.91
2018-11-26T03:30:24.461Z,100866.98
2018-11-26T03:31:24.906Z,100867.06
2018-11-26T03:32:25.422Z,100866.81
2018-11-26T03:33:25.519Z,100867.09
2018-11-26T03:34:25.957Z,100868.10
2018-11-26T03:35:26.307Z,100868.44
2018-11-26T03:36:26.902Z,100868.19
2018-11-26T03:37:27.288Z,100868.19
2018-11-26T03:38:27.767Z,100867.43
2018-11-26T03:39:28.436Z,100867.27
2018-11-26T03:40:28.977Z,100866.67
2018-11-26T03:41:29.386Z,100866.67
2018-11-26T03:42:29.812Z,100866.77
2018-11-26T03:43:30.345Z,100865.92
2018-11-26T03:44:30.802Z,100865.75
2018-11-26T03:45:31.372Z,100866.09
2018-11-26T03:46:31.958Z,100865.92
2018-11-26T03:47:32.670Z,100865.83
2018-11-26T03:48:33.101Z,100866.17
2018-11-26T03:49:33.397Z,100865.83
2018-11-26T03:50:33.846Z,100866.00
2018-11-26T03:51:34.287Z,100865.78
2018-11-26T03:52:35.016Z,100865.67
2018-11-26T03:53:35.470Z,100866.26
2018-11-26T03:54:35.934Z,100866.59
2018-11-26T03:55:36.311Z,100866.77
2018-11-26T03:56:37.014Z,100867.17
2018-11-26T03:57:37.496Z,100867.77
2018-11-26T03:58:38.067Z,100867.84
2018-11-26T03:59:38.409Z,100867.84
2018-11-26T04:00:38.873Z,100868.44
2018-11-26T04:01:39.534Z,100869.03
2018-11-26T04:02:40.488Z,100869.53
2018-11-26T04:03:40.988Z,100869.86
2018-11-26T04:04:41.557Z,100870.20
2018-11-26T04:05:41.989Z,100870.37
2018-11-26T04:06:42.827Z,100870.70
2018-11-26T04:07:43.448Z,100870.79
2018-11-26T04:08:43.603Z,100871.63
2018-11-26T04:09:44.016Z,100871.70
2018-11-26T04:10:44.591Z,100872.21
2018-11-26T04:10:52.651Z,100874.28
2018-11-26T04:11:54.024Z,100873.70
2018-11-26T04:12:54.434Z,100873.14
2018-11-26T04:13:54.916Z,100872.69
2018-11-26T04:14:55.016Z,100872.19
2018-11-26T04:15:55.477Z,100871.84
2018-11-26T04:16:56.055Z,100871.80
2018-11-26T04:17:56.664Z,100872.05
2018-11-26T04:18:57.149Z,100871.88
2018-11-26T04:19:57.533Z,100872.16
2018-11-26T04:20:57.901Z,100871.98
2018-11-26T04:21:58.324Z,100871.73
2018-11-26T04:22:58.761Z,100872.02
2018-11-26T04:23:59.217Z,100872.86
2018-11-26T04:24:59.621Z,100872.69
2018-11-26T04:26:00.048Z,100873.19
2018-11-26T04:27:00.513Z,100872.62
2018-11-26T04:28:00.992Z,100872.38
2018-11-26T04:29:01.833Z,100872.97
2018-11-26T04:30:02.410Z,100873.22
2018-11-26T04:31:02.855Z,100873.66
2018-11-26T04:32:03.364Z,100873.41
2018-11-26T04:33:03.902Z,100872.82
2018-11-26T04:34:04.432Z,100872.73
2018-11-26T04:35:04.793Z,100872.77
2018-11-26T04:36:05.654Z,100872.13
2018-11-26T04:37:06.050Z,100872.04
2018-11-26T04:38:06.700Z,100872.12
2018-11-26T04:39:06.896Z,100872.31
2018-11-26T04:40:07.354Z,100872.14
2018-11-26T04:41:07.836Z,100872.23
2018-11-26T04:42:08.557Z,100871.84
2018-11-26T04:43:08.994Z,100871.78
2018-11-26T04:44:09.442Z,100871.39
2018-11-26T04:45:09.767Z,100871.33
2018-11-26T04:46:10.498Z,100871.33
2018-11-26T04:47:10.919Z,100870.77
2018-11-26T04:48:11.785Z,100870.43
2018-11-26T04:49:12.281Z,100870.30
2018-11-26T04:50:12.858Z,100869.81
2018-11-26T04:51:13.349Z,100869.14
2018-11-26T04:52:13.885Z,100869.22
2018-11-26T04:53:14.396Z,100869.09
2018-11-26T04:54:14.884Z,100869.00
2018-11-26T04:55:15.220Z,100869.03
2018-11-26T04:55:23.282Z,100868.41
2018-11-26T04:56:24.854Z,100867.68
2018-11-26T04:57:25.704Z,100867.34
2018-11-26T04:58:26.206Z,100866.25
2018-11-26T04:59:26.935Z,100866.42
2018-11-26T05:00:27.275Z,100865.66
2018-11-26T05:01:27.729Z,100865.25
2018-11-26T05:02:28.138Z,100864.91
2018-11-26T05:03:28.570Z,100863.98
2018-11-26T05:04:29.025Z,100863.48
2018-11-26T05:05:29.409Z,100862.81
2018-11-26T05:06:29.880Z,100862.81
2018-11-26T05:07:30.580Z,100862.64
2018-11-26T05:08:31.234Z,100861.89
2018-11-26T05:09:31.701Z,100861.55
2018-11-26T05:10:32.096Z,100860.80
2018-11-26T05:11:32.464Z,100859.88
2018-11-26T05:12:33.047Z,100859.30
2018-11-26T05:13:33.866Z,100858.84
2018-11-26T05:14:34.226Z,100858.59
2018-11-26T05:15:34.328Z,100857.92
2018-11-26T05:16:34.910Z,100857.25
2018-11-26T05:17:35.452Z,100856.91
2018-11-26T05:18:35.895Z,100856.50
2018-11-26T05:19:36.262Z,100856.30
2018-11-26T05:20:36.908Z,100855.97
2018-11-26T05:21:37.148Z,100854.84
2018-11-26T05:22:37.572Z,100854.66
2018-11-26T05:23:38.349Z,100854.41
2018-11-26T05:24:38.823Z,100853.87
2018-11-26T05:25:39.742Z,100853.18
2018-11-26T05:26:40.167Z,100852.73
2018-11-26T05:27:40.491Z,100852.40
2018-11-26T05:28:41.108Z,100851.53
2018-11-26T05:29:41.765Z,100850.95
2018-11-26T05:30:42.444Z,100850.53
2018-11-26T05:31:42.839Z,100850.19
2018-11-26T05:32:43.281Z,100850.03
2018-11-26T05:33:43.725Z,100849.52
2018-11-26T05:34:44.531Z,100849.77
2018-11-26T05:35:45.046Z,100849.77
2018-11-26T05:36:45.599Z,100849.38
2018-11-26T05:37:46.311Z,100849.55
2018-11-26T05:38:46.734Z,100849.71
2018-11-26T05:39:47.238Z,100849.96
2018-11-26T05:40:47.943Z,100850.49
2018-11-26T05:40:56.238Z,100855.95
2018-11-26T05:41:57.557Z,100855.37
2018-11-26T05:42:57.981Z,100855.70
2018-11-26T05:43:58.456Z,100855.73
2018-11-26T05:44:58.841Z,100856.31
2018-11-26T05:45:59.204Z,100856.56
2018-11-26T05:46:59.644Z,100856.52
2018-11-26T05:48:00.244Z,100856.26
2018-11-26T05:49:00.708Z,100856.34
2018-11-26T05:50:00.846Z,100857.13
2018-11-26T05:51:01.516Z,100857.46
2018-11-26T05:52:02.354Z,100858.05
2018-11-26T05:53:02.836Z,100858.58
2018-11-26T05:54:03.320Z,100858.49
2018-11-26T05:55:03.671Z,100858.58
2018-11-26T05:56:04.219Z,100858.52
2018-11-26T05:57:04.599Z,100858.60
2018-11-26T05:58:05.109Z,100859.02
2018-11-26T05:59:05.566Z,100859.22
2018-11-26T06:00:06.037Z,100858.82
2018-11-26T06:01:06.464Z,100858.48
2018-11-26T06:02:06.975Z,100858.84
2018-11-26T06:03:07.400Z,100859.12
2018-11-26T06:04:07.918Z,100859.23
2018-11-26T06:05:08.651Z,100860.09
2018-11-26T06:06:09.243Z,100860.41
2018-11-26T06:07:10.032Z,100860.59
2018-11-26T06:08:10.966Z,100861.29
2018-11-26T06:09:11.575Z,100861.56
2018-11-26T06:10:12.069Z,100861.42
2018-11-26T06:11:12.450Z,100861.87
2018-11-26T06:12:13.103Z,100861.55
2018-11-26T06:13:13.646Z,100862.00
2018-11-26T06:14:14.124Z,100861.94
2018-11-26T06:15:14.632Z,100862.61
2018-11-26T06:16:15.044Z,100862.72
2018-11-26T06:17:16.597Z,100863.08
2018-11-26T06:18:15.070Z,100863.42
2018-11-26T06:19:16.508Z,100863.53
2018-11-26T06:20:16.969Z,100863.55
2018-11-26T06:21:17.298Z,100864.39
2018-11-26T06:22:17.678Z,100865.42
2018-11-26T06:23:18.048Z,100865.84
2018-11-26T06:24:18.551Z,100866.54
2018-11-26T06:25:19.142Z,100867.20
2018-11-26T06:26:19.604Z,100867.23
2018-11-26T06:26:27.997Z,100876.63
2018-11-26T06:27:29.316Z,100876.23
2018-11-26T06:28:29.592Z,100876.65
2018-11-26T06:29:30.151Z,100876.48
2018-11-26T06:30:30.731Z,100876.39
2018-11-26T06:31:31.277Z,100876.23
2018-11-26T06:32:32.245Z,100876.39
2018-11-26T06:33:32.245Z,100876.56
2018-11-26T06:34:32.647Z,100876.17
2018-11-26T06:35:33.012Z,100876.34
2018-11-26T06:36:33.634Z,100876.51
2018-11-26T06:37:34.226Z,100876.76
2018-11-26T06:38:34.648Z,100877.01
2018-11-26T06:39:35.473Z,100877.03
2018-11-26T06:40:35.826Z,100877.12
2018-11-26T06:41:36.562Z,100877.11
2018-11-26T06:42:37.013Z,100878.06
2018-11-26T06:43:37.864Z,100878.65
2018-11-26T06:44:38.255Z,100879.06
2018-11-26T06:45:38.630Z,100880.32
2018-11-26T06:46:39.086Z,100880.86
2018-11-26T06:47:40.056Z,100881.44
2018-11-26T06:48:40.169Z,100882.22
2018-11-26T06:49:40.776Z,100883.39
2018-11-26T06:50:41.269Z,100883.98
2018-11-26T06:51:41.608Z,100884.48
2018-11-26T06:52:42.033Z,100885.34
2018-11-26T06:53:42.681Z,100885.84
2018-11-26T06:54:43.187Z,100886.38
2018-11-26T06:55:43.931Z,100887.46
2018-11-26T06:56:44.510Z,100888.24
2018-11-26T06:57:44.958Z,100889.00
2018-11-26T06:58:45.393Z,100890.09
2018-11-26T06:59:45.878Z,100891.00
2018-11-26T07:00:46.261Z,100891.63
2018-11-26T07:01:46.676Z,100892.46
2018-11-26T07:02:47.006Z,100893.30
2018-11-26T07:03:47.427Z,100894.47
2018-11-26T07:04:47.796Z,100895.53
2018-11-26T07:05:48.256Z,100897.13
2018-11-26T07:06:48.848Z,100898.38
2018-11-26T07:07:49.239Z,100898.98
2018-11-26T07:08:49.696Z,100899.70
2018-11-26T07:09:50.209Z,100900.28
2018-11-26T07:09:58.720Z,100915.88
2018-11-26T07:10:59.311Z,100915.45
2018-11-26T07:11:59.674Z,100915.71
2018-11-26T07:12:59.740Z,100915.88
2018-11-26T07:14:00.134Z,100916.30
2018-11-26T07:15:00.896Z,100916.62
2018-11-26T07:16:01.494Z,100916.80
2018-11-26T07:17:02.179Z,100917.30
2018-11-26T07:18:02.855Z,100917.50
2018-11-26T07:19:03.430Z,100917.75
2018-11-26T07:20:03.857Z,100917.77
2018-11-26T07:21:04.664Z,100918.36
2018-11-26T07:22:05.532Z,100919.11
2018-11-26T07:23:04.445Z,100920.45
2018-11-26T07:24:06.067Z,100921.03
2018-11-26T07:25:07.094Z,100922.04
2018-11-26T07:26:07.664Z,100922.49
2018-11-26T07:27:08.175Z,100923.50
2018-11-26T07:28:08.670Z,100924.33
2018-11-26T07:29:09.347Z,100925.34
2018-11-26T07:30:10.095Z,100925.76
2018-11-26T07:31:10.477Z,100926.59
2018-11-26T07:32:11.086Z,100927.44
2018-11-26T07:33:11.570Z,100928.27
2018-11-26T07:34:12.346Z,100929.45
2018-11-26T07:35:12.942Z,100930.54
2018-11-26T07:36:13.883Z,100931.38
2018-11-26T07:37:14.295Z,100932.44
2018-11-26T07:38:14.697Z,100932.94
2018-11-26T07:39:15.076Z,100934.11
2018-11-26T07:40:15.898Z,100935.70
2018-11-26T07:41:16.671Z,100936.55
2018-11-26T07:42:17.636Z,100937.64
2018-11-26T07:43:18.027Z,100938.56
2018-11-26T07:44:18.671Z,100940.38
2018-11-26T07:45:19.551Z,100941.64
2018-11-26T07:46:20.120Z,100943.23
2018-11-26T07:47:20.742Z,100944.55
2018-11-26T07:48:21.198Z,100946.03
2018-11-26T07:49:21.678Z,100947.20
2018-11-26T07:50:22.146Z,100948.35
2018-11-26T07:51:22.671Z,100948.94
2018-11-26T07:52:23.094Z,100950.12
2018-11-26T07:53:23.771Z,100951.34
2018-11-26T07:54:24.367Z,100953.03
2018-11-26T07:55:24.749Z,100953.62
2018-11-26T07:56:25.306Z,100954.94
2018-11-26T07:56:33.669Z,100967.36
2018-11-26T07:57:34.628Z,100967.10
2018-11-26T07:58:35.225Z,100968.36
2018-11-26T07:59:35.628Z,100967.77
2018-11-26T08:00:35.871Z,100968.28
2018-11-26T08:01:36.252Z,100967.94
2018-11-26T08:02:36.721Z,100968.36
2018-11-26T08:03:37.087Z,100968.53
2018-11-26T08:04:36.648Z,100968.95
2018-11-26T08:05:37.058Z,100969.54
2018-11-26T08:06:38.406Z,100969.76
2018-11-26T08:07:39.165Z,100970.19
2018-11-26T08:08:39.946Z,100970.44
2018-11-26T08:09:40.391Z,100970.33
2018-11-26T08:10:41.046Z,100970.50
2018-11-26T08:11:41.497Z,100970.72
2018-11-26T08:12:41.979Z,100971.39
2018-11-26T08:13:42.077Z,100971.70
2018-11-26T08:14:42.569Z,100971.94
2018-11-26T08:15:43.022Z,100972.16
2018-11-26T08:16:43.512Z,100972.75
2018-11-26T08:17:43.943Z,100973.91
2018-11-26T08:18:43.749Z,100974.30
2018-11-26T08:19:45.301Z,100974.86
2018-11-26T08:20:45.057Z,100975.59
2018-11-26T08:21:46.493Z,100976.15
2018-11-26T08:22:46.961Z,100976.74
2018-11-26T08:23:46.849Z,100977.30
2018-11-26T08:24:48.803Z,100978.28
2018-11-26T08:25:49.265Z,100979.11
2018-11-26T08:26:48.945Z,100979.66
2018-11-26T08:27:50.567Z,100980.48
2018-11-26T08:28:51.181Z,100981.63
2018-11-26T08:29:51.573Z,100982.61
2018-11-26T08:30:51.239Z,100983.27
2018-11-26T08:31:52.659Z,100983.70
2018-11-26T08:32:53.158Z,100984.52
2018-11-26T08:33:52.635Z,100984.84
2018-11-26T08:34:54.093Z,100985.66
2018-11-26T08:35:54.631Z,100986.13
2018-11-26T08:36:54.100Z,100987.11
2018-11-26T08:37:55.560Z,100987.59
2018-11-26T08:38:56.243Z,100988.33
2018-11-26T08:39:56.675Z,100989.47
2018-11-26T08:40:56.740Z,100990.29
2018-11-26T08:41:57.541Z,100991.44
2018-11-26T08:42:58.171Z,100992.42
2018-11-26T08:43:58.790Z,100994.08
2018-11-26T08:44:59.467Z,100994.64
2018-11-26T08:45:59.934Z,100995.79
2018-11-26T08:47:00.298Z,100996.52
2018-11-26T08:47:08.747Z,101022.12
2018-11-26T08:48:09.536Z,101021.19
2018-11-26T08:49:09.957Z,101021.02
2018-11-26T08:50:10.320Z,101020.52
2018-11-26T08:51:10.669Z,101020.86
2018-11-26T08:52:11.263Z,101020.19
2018-11-26T08:53:11.829Z,101020.44
2018-11-26T08:54:12.598Z,101020.16
2018-11-26T08:55:13.118Z,101019.74
2018-11-26T08:56:13.458Z,101019.49
2018-11-26T08:57:13.909Z,101019.58
2018-11-26T08:58:14.336Z,101019.13
2018-11-26T08:59:14.701Z,101019.47
2018-11-26T09:00:15.193Z,101019.69
2018-11-26T09:01:15.671Z,101020.03
2018-11-26T09:02:16.192Z,101020.11
2018-11-26T09:03:16.607Z,101020.42
2018-11-26T09:04:17.051Z,101020.67
2018-11-26T09:05:23.958Z,101020.77
2018-11-26T09:06:17.511Z,101020.98
2018-11-26T09:07:19.050Z,101021.23
2018-11-26T09:08:19.542Z,101021.32
2018-11-26T09:09:20.394Z,101022.13
2018-11-26T09:10:20.105Z,101022.05
2018-11-26T09:11:21.183Z,101022.53
2018-11-26T09:12:21.627Z,101022.61
2018-11-26T09:13:21.998Z,101023.29
2018-11-26T09:14:22.407Z,101024.09
2018-11-26T09:15:22.989Z,101024.52
2018-11-26T09:16:23.436Z,101025.50
2018-11-26T09:17:24.100Z,101025.08
2018-11-26T09:18:24.622Z,101025.89
2018-11-26T09:19:25.410Z,101026.48
2018-11-26T09:20:25.885Z,101026.80
2018-11-26T09:21:26.280Z,101026.97
2018-11-26T09:22:26.725Z,101027.10
2018-11-26T09:23:27.404Z,101027.78
2018-11-26T09:24:28.162Z,101028.50
2018-11-26T09:25:28.576Z,101029.34
2018-11-26T09:26:27.993Z,101029.99
2018-11-26T09:27:29.481Z,101030.67
2018-11-26T09:28:30.188Z,101031.39
2018-11-26T09:29:30.907Z,101032.20
2018-11-26T09:30:31.455Z,101033.30
2018-11-26T09:31:32.502Z,101033.95
2018-11-26T09:32:31.564Z,101035.02
2018-11-26T09:33:33.082Z,101035.52
2018-11-26T09:34:33.549Z,101036.59
2018-11-26T09:35:33.878Z,101037.14
2018-11-26T09:35:41.948Z,101048.86
2018-11-26T09:36:43.513Z,101048.61
2018-11-26T09:37:45.353Z,101048.53
2018-11-26T09:38:45.148Z,101048.36
2018-11-26T09:39:45.569Z,101048.28
2018-11-26T09:40:45.940Z,101048.92
2018-11-26T09:41:46.482Z,101048.50
2018-11-26T09:42:47.292Z,101049.02
2018-11-26T09:43:48.003Z,101049.23
2018-11-26T09:44:48.464Z,101049.06
2018-11-26T09:45:49.014Z,101049.04
2018-11-26T09:46:49.081Z,101049.38
2018-11-26T09:47:49.503Z,101049.69
2018-11-26T09:48:49.979Z,101049.63
2018-11-26T09:49:50.421Z,101049.78
2018-11-26T09:50:50.817Z,101050.03
2018-11-26T09:51:51.192Z,101049.84
2018-11-26T09:52:51.679Z,101049.81
2018-11-26T09:53:52.200Z,101050.06
2018-11-26T09:54:52.590Z,101049.87
2018-11-26T09:55:52.931Z,101050.09
2018-11-26T09:56:53.426Z,101049.42
2018-11-26T09:57:53.977Z,101049.98
2018-11-26T09:58:54.841Z,101049.79
2018-11-26T09:59:55.522Z,101050.22
2018-11-26T10:00:55.941Z,101050.78
2018-11-26T10:01:56.325Z,101050.66
2018-11-26T10:02:56.904Z,101050.55
2018-11-26T10:03:57.343Z,101050.19
2018-11-26T10:04:57.885Z,101049.91
2018-11-26T10:05:58.520Z,101050.06
2018-11-26T10:06:59.010Z,101050.25
2018-11-26T10:07:59.774Z,101050.40
2018-11-26T10:09:00.697Z,101050.54
2018-11-26T10:10:00.971Z,101050.17
2018-11-26T10:11:01.672Z,101050.48
2018-11-26T10:12:02.083Z,101050.55
2018-11-26T10:13:02.603Z,101050.21
2018-11-26T10:14:03.214Z,101049.59
2018-11-26T10:15:03.888Z,101049.82
2018-11-26T10:16:04.589Z,101050.05
2018-11-26T10:17:04.919Z,101050.30
2018-11-26T10:18:05.257Z,101050.02
2018-11-26T10:19:05.814Z,101049.73
2018-11-26T10:19:29.897Z,101051.16
2018-11-26T10:20:30.501Z,101050.43
2018-11-26T10:21:31.024Z,101050.77
2018-11-26T10:22:31.045Z,101050.94
2018-11-26T10:23:31.584Z,101050.59
2018-11-26T10:24:32.201Z,101050.01
2018-11-26T10:25:33.114Z,101050.18
2018-11-26T10:26:33.519Z,101049.67
2018-11-26T10:27:34.008Z,101049.42
2018-11-26T10:28:34.908Z,101048.92
2018-11-26T10:29:35.726Z,101048.89
2018-11-26T10:30:36.577Z,101048.30
2018-11-26T10:31:37.455Z,101047.72
2018-11-26T10:32:37.972Z,101047.69
2018-11-26T10:33:38.685Z,101047.27
2018-11-26T10:34:39.224Z,101047.19
2018-11-26T10:35:39.948Z,101046.40
2018-11-26T10:36:41.186Z,101046.31
2018-11-26T10:37:40.124Z,101045.73
2018-11-26T10:38:41.638Z,101045.45
2018-11-26T10:39:41.044Z,101044.95
2018-11-26T10:40:42.852Z,101044.50
2018-11-26T10:41:43.345Z,101043.58
2018-11-26T10:42:43.882Z,101042.98
2018-11-26T10:43:44.283Z,101042.95
2018-11-26T10:44:45.257Z,101042.20
2018-11-26T10:45:45.661Z,101042.09
2018-11-26T10:46:46.091Z,101041.42
2018-11-26T10:47:47.084Z,101040.33
2018-11-26T10:48:47.523Z,101039.54
2018-11-26T10:49:48.271Z,101039.45
2018-11-26T10:50:49.118Z,101039.20
2018-11-26T10:51:49.548Z,101038.76
2018-11-26T10:52:50.418Z,101037.97
2018-11-26T10:53:50.889Z,101037.53
2018-11-26T10:54:51.603Z,101036.91
2018-11-26T10:55:52.064Z,101036.35
2018-11-26T10:56:52.784Z,101035.96
2018-11-26T10:57:53.138Z,101035.18
2018-11-26T10:58:53.660Z,101034.59
2018-11-26T10:59:54.127Z,101033.86
2018-11-26T11:00:54.490Z,101032.97
2018-11-26T11:01:54.859Z,101032.66
2018-11-26T11:02:55.828Z,101032.48
2018-11-26T11:03:54.734Z,101031.93
2018-11-26T11:04:56.336Z,101031.62
2018-11-26T11:05:56.322Z,101031.06
2018-11-26T11:06:57.033Z,101030.55
2018-11-26T11:07:05.467Z,101032.02
2018-11-26T11:08:06.296Z,101031.77
2018-11-26T11:09:06.856Z,101031.77
2018-11-26T11:10:07.329Z,101031.34
2018-11-26T11:11:08.047Z,101031.01
2018-11-26T11:12:08.390Z,101030.50
2018-11-26T11:13:08.769Z,101030.00
2018-11-26T11:14:09.122Z,101030.34
2018-11-26T11:15:09.738Z,101030.67
2018-11-26T11:16:09.858Z,101030.45
2018-11-26T11:17:10.346Z,101030.37
2018-11-26T11:18:10.689Z,101030.20